Ripley, Michigan
Current Conditions -  °F | °C
As of 4:53 AM on Monday 26 Jan 2015 (Local Time) from KCMX Reporting Station
Overcast Overcast  
Wind Chill: -1°   Ceiling: 9000
Heat Index: 11°   Visibility: 10mi
Dew Point:   Wind: 8mph
Humidity: 73%   Direction: 190°S
Pressure: 29.86"   Gusts: NA
Location:  47.1715°N, 88.5503°W
Report Text: KCMX 260953Z AUTO 19007KT 10SM SCT060 OVC090 M12/M16 A2986 RMK AO2 SLP134 T11171156
Loading
Personal Weather Stations






























Interactive Weather Map New forecast layout! Learn more

10-Day Weather Forecast

Advertisements
Track Severe Weather on mobile